sensor_id;sensor_type;location;lat;lon;timestamp;P1;durP1;ratioP1;P2;durP2;ratioP2
8881;SDS011;4477;48.736;9.176;2023-06-22T00:01:17;11.17;;;10.10;;
8881;SDS011;4477;48.736;9.176;2023-06-22T00:03:44;11.60;;;9.80;;
8881;SDS011;4477;48.736;9.176;2023-06-22T00:06:12;11.00;;;9.83;;
8881;SDS011;4477;48.736;9.176;2023-06-22T00:08:39;11.17;;;10.10;;
8881;SDS011;4477;48.736;9.176;2023-06-22T00:11:06;10.87;;;9.83;;
8881;SDS011;4477;48.736;9.176;2023-06-22T00:13:33;11.57;;;10.37;;
8881;SDS011;4477;48.736;9.176;2023-06-22T00:16:00;12.47;;;10.57;;
8881;SDS011;4477;48.736;9.176;2023-06-22T00:18:27;12.43;;;10.57;;
8881;SDS011;4477;48.736;9.176;2023-06-22T00:20:55;14.27;;;10.30;;
8881;SDS011;4477;48.736;9.176;2023-06-22T00:23:25;14.17;;;11.50;;
8881;SDS011;4477;48.736;9.176;2023-06-22T00:25:52;12.40;;;10.60;;
8881;SDS011;4477;48.736;9.176;2023-06-22T00:28:19;14.37;;;11.97;;
8881;SDS011;4477;48.736;9.176;2023-06-22T00:30:48;14.50;;;11.07;;
8881;SDS011;4477;48.736;9.176;2023-06-22T00:33:15;12.43;;;10.80;;
8881;SDS011;4477;48.736;9.176;2023-06-22T00:35:46;11.20;;;10.10;;
8881;SDS011;4477;48.736;9.176;2023-06-22T00:38:12;11.40;;;10.20;;
8881;SDS011;4477;48.736;9.176;2023-06-22T00:40:41;12.17;;;10.47;;
8881;SDS011;4477;48.736;9.176;2023-06-22T00:43:14;14.17;;;11.43;;
8881;SDS011;4477;48.736;9.176;2023-06-22T00:45:41;11.77;;;10.07;;
8881;SDS011;4477;48.736;9.176;2023-06-22T00:48:08;14.40;;;11.07;;
8881;SDS011;4477;48.736;9.176;2023-06-22T00:50:35;11.63;;;10.43;;
8881;SDS011;4477;48.736;9.176;2023-06-22T00:53:03;13.37;;;10.43;;
8881;SDS011;4477;48.736;9.176;2023-06-22T00:55:33;11.73;;;10.57;;
8881;SDS011;4477;48.736;9.176;2023-06-22T00:58:05;12.07;;;10.47;;
8881;SDS011;4477;48.736;9.176;2023-06-22T01:00:35;12.90;;;11.20;;
8881;SDS011;4477;48.736;9.176;2023-06-22T01:05:43;12.60;;;11.27;;
8881;SDS011;4477;48.736;9.176;2023-06-22T01:08:16;11.63;;;10.43;;
8881;SDS011;4477;48.736;9.176;2023-06-22T01:10:53;12.20;;;10.37;;
8881;SDS011;4477;48.736;9.176;2023-06-22T01:13:28;12.50;;;11.27;;
8881;SDS011;4477;48.736;9.176;2023-06-22T01:16:00;13.10;;;11.23;;
8881;SDS011;4477;48.736;9.176;2023-06-22T01:18:30;14.53;;;11.70;;
8881;SDS011;4477;48.736;9.176;2023-06-22T01:20:58;12.57;;;10.73;;
8881;SDS011;4477;48.736;9.176;2023-06-22T01:23:29;12.47;;;11.27;;
8881;SDS011;4477;48.736;9.176;2023-06-22T01:26:05;13.27;;;11.53;;
8881;SDS011;4477;48.736;9.176;2023-06-22T01:28:44;13.00;;;11.27;;
8881;SDS011;4477;48.736;9.176;2023-06-22T01:31:13;13.17;;;11.40;;
8881;SDS011;4477;48.736;9.176;2023-06-22T01:33:43;13.10;;;11.10;;
8881;SDS011;4477;48.736;9.176;2023-06-22T01:36:11;13.53;;;12.13;;
8881;SDS011;4477;48.736;9.176;2023-06-22T01:38:40;13.40;;;12.03;;
8881;SDS011;4477;48.736;9.176;2023-06-22T01:41:09;11.23;;;10.13;;
8881;SDS011;4477;48.736;9.176;2023-06-22T01:43:36;11.87;;;10.67;;
8881;SDS011;4477;48.736;9.176;2023-06-22T01:46:05;14.57;;;12.37;;
8881;SDS011;4477;48.736;9.176;2023-06-22T01:48:32;12.50;;;10.97;;
8881;SDS011;4477;48.736;9.176;2023-06-22T01:50:59;13.27;;;11.33;;
8881;SDS011;4477;48.736;9.176;2023-06-22T01:53:26;13.13;;;11.63;;
8881;SDS011;4477;48.736;9.176;2023-06-22T01:55:53;12.40;;;11.03;;
8881;SDS011;4477;48.736;9.176;2023-06-22T01:58:20;13.70;;;11.00;;
8881;SDS011;4477;48.736;9.176;2023-06-22T02:00:50;15.97;;;10.47;;
8881;SDS011;4477;48.736;9.176;2023-06-22T02:03:25;12.13;;;10.33;;
8881;SDS011;4477;48.736;9.176;2023-06-22T02:05:56;11.77;;;10.57;;
8881;SDS011;4477;48.736;9.176;2023-06-22T02:08:35;12.90;;;10.83;;
8881;SDS011;4477;48.736;9.176;2023-06-22T02:11:06;16.97;;;12.23;;
8881;SDS011;4477;48.736;9.176;2023-06-22T02:13:35;15.00;;;11.00;;
8881;SDS011;4477;48.736;9.176;2023-06-22T02:16:07;12.53;;;11.13;;
8881;SDS011;4477;48.736;9.176;2023-06-22T02:18:36;12.50;;;11.30;;
8881;SDS011;4477;48.736;9.176;2023-06-22T02:21:05;13.50;;;12.10;;
8881;SDS011;4477;48.736;9.176;2023-06-22T02:23:32;16.17;;;13.87;;
8881;SDS011;4477;48.736;9.176;2023-06-22T02:26:00;18.47;;;14.23;;
8881;SDS011;4477;48.736;9.176;2023-06-22T02:28:27;14.40;;;12.90;;
8881;SDS011;4477;48.736;9.176;2023-06-22T02:30:54;16.20;;;13.87;;
8881;SDS011;4477;48.736;9.176;2023-06-22T02:33:21;14.30;;;12.30;;
8881;SDS011;4477;48.736;9.176;2023-06-22T02:35:49;14.43;;;13.00;;
8881;SDS011;4477;48.736;9.176;2023-06-22T02:38:16;14.30;;;12.73;;
8881;SDS011;4477;48.736;9.176;2023-06-22T02:40:44;15.83;;;13.17;;
8881;SDS011;4477;48.736;9.176;2023-06-22T02:43:11;17.33;;;13.03;;
8881;SDS011;4477;48.736;9.176;2023-06-22T02:45:38;14.50;;;13.20;;
8881;SDS011;4477;48.736;9.176;2023-06-22T02:48:05;17.67;;;13.33;;
8881;SDS011;4477;48.736;9.176;2023-06-22T02:50:32;15.67;;;13.87;;
8881;SDS011;4477;48.736;9.176;2023-06-22T02:53:00;14.67;;;13.17;;
8881;SDS011;4477;48.736;9.176;2023-06-22T02:55:27;15.57;;;13.43;;
8881;SDS011;4477;48.736;9.176;2023-06-22T02:57:53;15.00;;;13.37;;
8881;SDS011;4477;48.736;9.176;2023-06-22T03:00:22;15.40;;;13.53;;
8881;SDS011;4477;48.736;9.176;2023-06-22T03:02:55;15.17;;;13.53;;
8881;SDS011;4477;48.736;9.176;2023-06-22T03:05:22;15.27;;;13.67;;
8881;SDS011;4477;48.736;9.176;2023-06-22T03:07:49;15.03;;;13.53;;
8881;SDS011;4477;48.736;9.176;2023-06-22T03:10:17;16.00;;;14.30;;
8881;SDS011;4477;48.736;9.176;2023-06-22T03:12:44;14.63;;;13.13;;
8881;SDS011;4477;48.736;9.176;2023-06-22T03:15:11;16.57;;;14.03;;
8881;SDS011;4477;48.736;9.176;2023-06-22T03:17:39;16.00;;;13.73;;
8881;SDS011;4477;48.736;9.176;2023-06-22T03:20:07;16.23;;;13.47;;
8881;SDS011;4477;48.736;9.176;2023-06-22T03:22:36;17.37;;;13.20;;
8881;SDS011;4477;48.736;9.176;2023-06-22T03:25:03;17.67;;;14.67;;
8881;SDS011;4477;48.736;9.176;2023-06-22T03:27:36;16.00;;;14.10;;
8881;SDS011;4477;48.736;9.176;2023-06-22T03:30:03;15.17;;;13.60;;
8881;SDS011;4477;48.736;9.176;2023-06-22T03:32:30;15.37;;;13.87;;
8881;SDS011;4477;48.736;9.176;2023-06-22T03:34:57;15.47;;;13.97;;
8881;SDS011;4477;48.736;9.176;2023-06-22T03:37:24;16.40;;;14.67;;
8881;SDS011;4477;48.736;9.176;2023-06-22T03:39:51;14.47;;;13.17;;
8881;SDS011;4477;48.736;9.176;2023-06-22T03:42:18;18.93;;;14.67;;
8881;SDS011;4477;48.736;9.176;2023-06-22T03:44:46;16.03;;;14.47;;
8881;SDS011;4477;48.736;9.176;2023-06-22T03:47:13;19.20;;;15.73;;
8881;SDS011;4477;48.736;9.176;2023-06-22T03:49:40;17.97;;;15.20;;
8881;SDS011;4477;48.736;9.176;2023-06-22T03:52:07;18.00;;;16.03;;
8881;SDS011;4477;48.736;9.176;2023-06-22T03:54:35;17.47;;;15.10;;
8881;SDS011;4477;48.736;9.176;2023-06-22T03:57:02;19.70;;;15.90;;
8881;SDS011;4477;48.736;9.176;2023-06-22T03:59:30;18.57;;;16.63;;
8881;SDS011;4477;48.736;9.176;2023-06-22T04:01:58;17.33;;;14.97;;
8881;SDS011;4477;48.736;9.176;2023-06-22T04:04:25;20.00;;;16.17;;
8881;SDS011;4477;48.736;9.176;2023-06-22T04:06:52;15.73;;;14.13;;
8881;SDS011;4477;48.736;9.176;2023-06-22T04:09:19;15.67;;;14.10;;
8881;SDS011;4477;48.736;9.176;2023-06-22T04:11:46;16.47;;;14.63;;
8881;SDS011;4477;48.736;9.176;2023-06-22T04:14:13;13.93;;;12.53;;
8881;SDS011;4477;48.736;9.176;2023-06-22T04:16:40;16.17;;;14.50;;
8881;SDS011;4477;48.736;9.176;2023-06-22T04:19:08;13.67;;;12.27;;
8881;SDS011;4477;48.736;9.176;2023-06-22T04:21:41;13.63;;;12.03;;
8881;SDS011;4477;48.736;9.176;2023-06-22T04:24:08;12.70;;;11.50;;
8881;SDS011;4477;48.736;9.176;2023-06-22T04:26:34;12.77;;;11.23;;
8881;SDS011;4477;48.736;9.176;2023-06-22T04:29:02;11.93;;;10.83;;
8881;SDS011;4477;48.736;9.176;2023-06-22T04:31:30;11.73;;;10.63;;
8881;SDS011;4477;48.736;9.176;2023-06-22T04:34:02;12.60;;;10.70;;
8881;SDS011;4477;48.736;9.176;2023-06-22T04:36:32;11.13;;;9.87;;
8881;SDS011;4477;48.736;9.176;2023-06-22T04:39:02;10.70;;;9.60;;
8881;SDS011;4477;48.736;9.176;2023-06-22T04:41:30;12.17;;;9.50;;
8881;SDS011;4477;48.736;9.176;2023-06-22T04:44:07;11.70;;;10.13;;
8881;SDS011;4477;48.736;9.176;2023-06-22T04:46:35;9.33;;;8.33;;
8881;SDS011;4477;48.736;9.176;2023-06-22T04:49:03;9.57;;;8.57;;
8881;SDS011;4477;48.736;9.176;2023-06-22T04:51:36;11.80;;;9.20;;
8881;SDS011;4477;48.736;9.176;2023-06-22T04:54:04;14.57;;;9.93;;
8881;SDS011;4477;48.736;9.176;2023-06-22T04:56:31;10.10;;;8.93;;
8881;SDS011;4477;48.736;9.176;2023-06-22T04:58:58;11.27;;;9.30;;
8881;SDS011;4477;48.736;9.176;2023-06-22T05:01:25;11.60;;;9.43;;
8881;SDS011;4477;48.736;9.176;2023-06-22T05:03:52;12.87;;;8.43;;
8881;SDS011;4477;48.736;9.176;2023-06-22T05:06:20;10.03;;;8.37;;
8881;SDS011;4477;48.736;9.176;2023-06-22T05:08:50;9.00;;;8.10;;
8881;SDS011;4477;48.736;9.176;2023-06-22T05:11:19;11.97;;;8.57;;
8881;SDS011;4477;48.736;9.176;2023-06-22T05:13:45;10.20;;;8.00;;
8881;SDS011;4477;48.736;9.176;2023-06-22T05:16:12;9.85;;;7.65;;
8881;SDS011;4477;48.736;9.176;2023-06-22T05:18:39;10.57;;;6.97;;
8881;SDS011;4477;48.736;9.176;2023-06-22T05:21:06;8.15;;;6.90;;
8881;SDS011;4477;48.736;9.176;2023-06-22T05:23:33;8.35;;;7.43;;
8881;SDS011;4477;48.736;9.176;2023-06-22T05:26:02;7.35;;;6.65;;
8881;SDS011;4477;48.736;9.176;2023-06-22T05:28:28;9.55;;;7.15;;
8881;SDS011;4477;48.736;9.176;2023-06-22T05:30:55;9.07;;;7.20;;
8881;SDS011;4477;48.736;9.176;2023-06-22T05:33:24;8.73;;;6.93;;
8881;SDS011;4477;48.736;9.176;2023-06-22T05:35:50;7.68;;;6.22;;
8881;SDS011;4477;48.736;9.176;2023-06-22T05:38:18;7.30;;;6.60;;
8881;SDS011;4477;48.736;9.176;2023-06-22T05:40:44;7.95;;;6.30;;
8881;SDS011;4477;48.736;9.176;2023-06-22T05:43:13;8.52;;;6.45;;
8881;SDS011;4477;48.736;9.176;2023-06-22T05:45:39;6.70;;;5.85;;
8881;SDS011;4477;48.736;9.176;2023-06-22T05:48:06;7.57;;;6.40;;
8881;SDS011;4477;48.736;9.176;2023-06-22T05:50:33;9.43;;;6.45;;
8881;SDS011;4477;48.736;9.176;2023-06-22T05:53:00;7.55;;;6.10;;
8881;SDS011;4477;48.736;9.176;2023-06-22T05:55:27;6.75;;;5.45;;
8881;SDS011;4477;48.736;9.176;2023-06-22T05:57:54;10.13;;;5.70;;
8881;SDS011;4477;48.736;9.176;2023-06-22T06:00:22;7.68;;;6.03;;
8881;SDS011;4477;48.736;9.176;2023-06-22T06:02:49;8.23;;;6.68;;
8881;SDS011;4477;48.736;9.176;2023-06-22T06:05:16;8.60;;;6.28;;
8881;SDS011;4477;48.736;9.176;2023-06-22T06:07:45;6.82;;;6.10;;
8881;SDS011;4477;48.736;9.176;2023-06-22T06:10:12;10.48;;;6.70;;
8881;SDS011;4477;48.736;9.176;2023-06-22T06:12:39;8.45;;;6.18;;
8881;SDS011;4477;48.736;9.176;2023-06-22T06:15:06;8.60;;;5.78;;
8881;SDS011;4477;48.736;9.176;2023-06-22T06:17:34;6.93;;;6.20;;
8881;SDS011;4477;48.736;9.176;2023-06-22T06:20:01;8.40;;;6.03;;
8881;SDS011;4477;48.736;9.176;2023-06-22T06:22:32;6.97;;;6.13;;
8881;SDS011;4477;48.736;9.176;2023-06-22T06:24:59;7.32;;;5.65;;
8881;SDS011;4477;48.736;9.176;2023-06-22T06:27:26;9.93;;;6.32;;
8881;SDS011;4477;48.736;9.176;2023-06-22T06:29:54;10.05;;;6.00;;
8881;SDS011;4477;48.736;9.176;2023-06-22T06:32:21;6.82;;;5.40;;
8881;SDS011;4477;48.736;9.176;2023-06-22T06:34:49;7.07;;;5.00;;
8881;SDS011;4477;48.736;9.176;2023-06-22T06:37:16;7.28;;;5.13;;
8881;SDS011;4477;48.736;9.176;2023-06-22T06:39:43;8.38;;;5.40;;
8881;SDS011;4477;48.736;9.176;2023-06-22T06:42:10;8.02;;;5.72;;
8881;SDS011;4477;48.736;9.176;2023-06-22T06:44:38;7.35;;;5.40;;
8881;SDS011;4477;48.736;9.176;2023-06-22T06:47:04;8.23;;;5.25;;
8881;SDS011;4477;48.736;9.176;2023-06-22T06:49:33;6.20;;;4.68;;
8881;SDS011;4477;48.736;9.176;2023-06-22T06:52:01;9.85;;;5.78;;
8881;SDS011;4477;48.736;9.176;2023-06-22T06:54:28;7.35;;;5.45;;
8881;SDS011;4477;48.736;9.176;2023-06-22T06:56:55;8.38;;;5.40;;
8881;SDS011;4477;48.736;9.176;2023-06-22T06:59:23;7.50;;;5.60;;
8881;SDS011;4477;48.736;9.176;2023-06-22T07:01:50;5.75;;;5.05;;
8881;SDS011;4477;48.736;9.176;2023-06-22T07:04:16;9.55;;;4.47;;
8881;SDS011;4477;48.736;9.176;2023-06-22T07:06:43;6.65;;;4.50;;
8881;SDS011;4477;48.736;9.176;2023-06-22T07:09:11;7.40;;;4.95;;
8881;SDS011;4477;48.736;9.176;2023-06-22T07:11:38;6.32;;;4.82;;
8881;SDS011;4477;48.736;9.176;2023-06-22T07:14:05;8.93;;;4.88;;
8881;SDS011;4477;48.736;9.176;2023-06-22T07:16:32;5.45;;;4.50;;
8881;SDS011;4477;48.736;9.176;2023-06-22T07:18:59;5.53;;;4.75;;
8881;SDS011;4477;48.736;9.176;2023-06-22T07:21:26;6.28;;;4.90;;
8881;SDS011;4477;48.736;9.176;2023-06-22T07:23:53;8.35;;;4.45;;
8881;SDS011;4477;48.736;9.176;2023-06-22T07:26:21;7.22;;;4.60;;
8881;SDS011;4477;48.736;9.176;2023-06-22T07:28:48;9.57;;;5.13;;
8881;SDS011;4477;48.736;9.176;2023-06-22T07:31:16;4.82;;;4.22;;
8881;SDS011;4477;48.736;9.176;2023-06-22T07:33:42;9.38;;;5.07;;
8881;SDS011;4477;48.736;9.176;2023-06-22T07:36:09;7.90;;;4.40;;
8881;SDS011;4477;48.736;9.176;2023-06-22T07:38:36;6.40;;;4.68;;
8881;SDS011;4477;48.736;9.176;2023-06-22T07:41:03;4.82;;;3.80;;
8881;SDS011;4477;48.736;9.176;2023-06-22T07:43:32;6.10;;;4.55;;
8881;SDS011;4477;48.736;9.176;2023-06-22T07:45:59;6.40;;;4.50;;
8881;SDS011;4477;48.736;9.176;2023-06-22T07:48:26;7.40;;;4.95;;
8881;SDS011;4477;48.736;9.176;2023-06-22T07:50:53;6.85;;;4.28;;
8881;SDS011;4477;48.736;9.176;2023-06-22T07:53:20;8.93;;;4.68;;
8881;SDS011;4477;48.736;9.176;2023-06-22T07:55:47;8.68;;;5.03;;
8881;SDS011;4477;48.736;9.176;2023-06-22T07:58:13;6.43;;;4.70;;
8881;SDS011;4477;48.736;9.176;2023-06-22T08:00:42;7.90;;;4.43;;
8881;SDS011;4477;48.736;9.176;2023-06-22T08:03:09;9.02;;;4.80;;
8881;SDS011;4477;48.736;9.176;2023-06-22T08:05:36;7.97;;;4.80;;
8881;SDS011;4477;48.736;9.176;2023-06-22T08:08:03;9.38;;;5.10;;
8881;SDS011;4477;48.736;9.176;2023-06-22T08:10:31;7.10;;;4.32;;
8881;SDS011;4477;48.736;9.176;2023-06-22T08:12:58;9.38;;;4.82;;
8881;SDS011;4477;48.736;9.176;2023-06-22T08:15:25;7.35;;;4.38;;
8881;SDS011;4477;48.736;9.176;2023-06-22T08:17:54;10.45;;;5.38;;
8881;SDS011;4477;48.736;9.176;2023-06-22T08:20:22;7.10;;;4.90;;
8881;SDS011;4477;48.736;9.176;2023-06-22T08:22:49;10.48;;;4.97;;
8881;SDS011;4477;48.736;9.176;2023-06-22T08:25:16;7.50;;;4.75;;
8881;SDS011;4477;48.736;9.176;2023-06-22T08:27:44;11.68;;;5.47;;
8881;SDS011;4477;48.736;9.176;2023-06-22T08:30:12;7.20;;;4.75;;
8881;SDS011;4477;48.736;9.176;2023-06-22T08:32:39;11.88;;;5.07;;
8881;SDS011;4477;48.736;9.176;2023-06-22T08:35:08;10.00;;;5.22;;
8881;SDS011;4477;48.736;9.176;2023-06-22T08:37:35;6.82;;;5.10;;
8881;SDS011;4477;48.736;9.176;2023-06-22T08:40:04;10.07;;;5.72;;
8881;SDS011;4477;48.736;9.176;2023-06-22T08:42:35;7.93;;;4.95;;
8881;SDS011;4477;48.736;9.176;2023-06-22T08:45:03;9.15;;;5.10;;
8881;SDS011;4477;48.736;9.176;2023-06-22T08:47:30;12.18;;;5.20;;
8881;SDS011;4477;48.736;9.176;2023-06-22T08:49:57;8.40;;;5.55;;
8881;SDS011;4477;48.736;9.176;2023-06-22T08:52:25;9.35;;;5.38;;
8881;SDS011;4477;48.736;9.176;2023-06-22T08:54:52;8.88;;;5.50;;
8881;SDS011;4477;48.736;9.176;2023-06-22T08:57:18;9.43;;;4.85;;
8881;SDS011;4477;48.736;9.176;2023-06-22T08:59:45;11.57;;;5.75;;
8881;SDS011;4477;48.736;9.176;2023-06-22T09:02:12;10.95;;;5.13;;
8881;SDS011;4477;48.736;9.176;2023-06-22T09:04:39;12.13;;;5.47;;
8881;SDS011;4477;48.736;9.176;2023-06-22T09:07:06;7.85;;;4.95;;
8881;SDS011;4477;48.736;9.176;2023-06-22T09:09:34;8.73;;;4.80;;
8881;SDS011;4477;48.736;9.176;2023-06-22T09:12:01;11.23;;;5.78;;
8881;SDS011;4477;48.736;9.176;2023-06-22T09:14:28;9.55;;;5.50;;
8881;SDS011;4477;48.736;9.176;2023-06-22T09:16:55;10.65;;;5.00;;
8881;SDS011;4477;48.736;9.176;2023-06-22T09:19:22;6.78;;;4.95;;
8881;SDS011;4477;48.736;9.176;2023-06-22T09:21:49;6.95;;;5.07;;
8881;SDS011;4477;48.736;9.176;2023-06-22T09:24:17;11.43;;;5.28;;
8881;SDS011;4477;48.736;9.176;2023-06-22T09:26:45;13.60;;;5.80;;
8881;SDS011;4477;48.736;9.176;2023-06-22T09:29:12;10.25;;;5.72;;
8881;SDS011;4477;48.736;9.176;2023-06-22T09:31:39;7.07;;;5.28;;
8881;SDS011;4477;48.736;9.176;2023-06-22T09:34:06;10.75;;;5.20;;
8881;SDS011;4477;48.736;9.176;2023-06-22T09:36:32;7.65;;;4.90;;
8881;SDS011;4477;48.736;9.176;2023-06-22T09:39:00;6.85;;;4.97;;
8881;SDS011;4477;48.736;9.176;2023-06-22T09:41:31;9.15;;;5.32;;
8881;SDS011;4477;48.736;9.176;2023-06-22T09:43:59;10.18;;;5.07;;
8881;SDS011;4477;48.736;9.176;2023-06-22T09:46:26;10.07;;;5.45;;
8881;SDS011;4477;48.736;9.176;2023-06-22T09:48:53;8.20;;;5.18;;
8881;SDS011;4477;48.736;9.176;2023-06-22T09:51:20;9.93;;;5.30;;
8881;SDS011;4477;48.736;9.176;2023-06-22T09:53:48;7.50;;;5.65;;
8881;SDS011;4477;48.736;9.176;2023-06-22T09:56:15;12.18;;;5.38;;
8881;SDS011;4477;48.736;9.176;2023-06-22T09:58:42;9.77;;;5.28;;
8881;SDS011;4477;48.736;9.176;2023-06-22T10:01:11;11.20;;;5.68;;
8881;SDS011;4477;48.736;9.176;2023-06-22T10:03:39;10.20;;;5.20;;
8881;SDS011;4477;48.736;9.176;2023-06-22T10:06:06;10.20;;;5.00;;
8881;SDS011;4477;48.736;9.176;2023-06-22T10:08:34;10.13;;;5.20;;
8881;SDS011;4477;48.736;9.176;2023-06-22T10:11:01;13.00;;;5.78;;
8881;SDS011;4477;48.736;9.176;2023-06-22T10:13:27;12.40;;;6.03;;
8881;SDS011;4477;48.736;9.176;2023-06-22T10:15:54;13.18;;;6.07;;
8881;SDS011;4477;48.736;9.176;2023-06-22T10:18:22;10.25;;;5.18;;
8881;SDS011;4477;48.736;9.176;2023-06-22T10:20:50;10.80;;;5.70;;
8881;SDS011;4477;48.736;9.176;2023-06-22T10:23:17;10.20;;;5.25;;
8881;SDS011;4477;48.736;9.176;2023-06-22T10:25:44;13.18;;;6.03;;
8881;SDS011;4477;48.736;9.176;2023-06-22T10:28:11;7.68;;;5.13;;
8881;SDS011;4477;48.736;9.176;2023-06-22T10:30:38;10.52;;;5.35;;
8881;SDS011;4477;48.736;9.176;2023-06-22T10:33:06;8.00;;;5.22;;
8881;SDS011;4477;48.736;9.176;2023-06-22T10:35:34;10.25;;;5.18;;
8881;SDS011;4477;48.736;9.176;2023-06-22T10:38:02;12.13;;;5.60;;
8881;SDS011;4477;48.736;9.176;2023-06-22T10:40:29;13.98;;;6.07;;
8881;SDS011;4477;48.736;9.176;2023-06-22T10:42:56;11.77;;;5.35;;
8881;SDS011;4477;48.736;9.176;2023-06-22T10:45:23;10.40;;;5.75;;
8881;SDS011;4477;48.736;9.176;2023-06-22T10:47:50;10.68;;;5.38;;
8881;SDS011;4477;48.736;9.176;2023-06-22T10:50:17;10.90;;;5.55;;
8881;SDS011;4477;48.736;9.176;2023-06-22T10:52:46;9.20;;;5.50;;
8881;SDS011;4477;48.736;9.176;2023-06-22T10:55:13;8.82;;;5.70;;
8881;SDS011;4477;48.736;9.176;2023-06-22T10:57:40;10.18;;;5.80;;
8881;SDS011;4477;48.736;9.176;2023-06-22T11:00:09;13.15;;;5.53;;
8881;SDS011;4477;48.736;9.176;2023-06-22T11:02:37;9.20;;;5.47;;
8881;SDS011;4477;48.736;9.176;2023-06-22T11:05:04;9.73;;;5.78;;
8881;SDS011;4477;48.736;9.176;2023-06-22T11:07:31;10.57;;;5.45;;
8881;SDS011;4477;48.736;9.176;2023-06-22T11:09:59;10.75;;;5.30;;
8881;SDS011;4477;48.736;9.176;2023-06-22T11:12:26;13.50;;;5.95;;
8881;SDS011;4477;48.736;9.176;2023-06-22T11:14:53;15.05;;;6.00;;
8881;SDS011;4477;48.736;9.176;2023-06-22T11:17:22;14.15;;;5.38;;
8881;SDS011;4477;48.736;9.176;2023-06-22T11:19:49;7.88;;;5.28;;
8881;SDS011;4477;48.736;9.176;2023-06-22T11:22:15;12.88;;;6.22;;
8881;SDS011;4477;48.736;9.176;2023-06-22T11:24:42;12.30;;;5.60;;
8881;SDS011;4477;48.736;9.176;2023-06-22T11:27:10;10.95;;;5.35;;
8881;SDS011;4477;48.736;9.176;2023-06-22T11:29:38;14.13;;;6.35;;
8881;SDS011;4477;48.736;9.176;2023-06-22T11:32:06;14.88;;;5.97;;
8881;SDS011;4477;48.736;9.176;2023-06-22T11:34:33;12.70;;;5.85;;
8881;SDS011;4477;48.736;9.176;2023-06-22T11:37:00;12.00;;;6.03;;
8881;SDS011;4477;48.736;9.176;2023-06-22T11:39:27;9.35;;;6.28;;
8881;SDS011;4477;48.736;9.176;2023-06-22T11:41:54;10.32;;;6.45;;
8881;SDS011;4477;48.736;9.176;2023-06-22T11:44:22;9.98;;;5.75;;
8881;SDS011;4477;48.736;9.176;2023-06-22T11:46:49;12.95;;;6.00;;
8881;SDS011;4477;48.736;9.176;2023-06-22T11:49:16;11.98;;;5.78;;
8881;SDS011;4477;48.736;9.176;2023-06-22T11:51:42;12.40;;;6.10;;
8881;SDS011;4477;48.736;9.176;2023-06-22T11:54:12;9.48;;;6.03;;
8881;SDS011;4477;48.736;9.176;2023-06-22T11:56:39;9.02;;;5.68;;
8881;SDS011;4477;48.736;9.176;2023-06-22T11:59:06;10.40;;;6.10;;
8881;SDS011;4477;48.736;9.176;2023-06-22T12:01:34;8.38;;;5.95;;
8881;SDS011;4477;48.736;9.176;2023-06-22T12:04:01;13.15;;;6.00;;
8881;SDS011;4477;48.736;9.176;2023-06-22T12:06:30;10.77;;;6.38;;
8881;SDS011;4477;48.736;9.176;2023-06-22T12:08:57;11.48;;;6.22;;
8881;SDS011;4477;48.736;9.176;2023-06-22T12:11:24;9.57;;;6.07;;
8881;SDS011;4477;48.736;9.176;2023-06-22T12:13:51;12.07;;;6.13;;
8881;SDS011;4477;48.736;9.176;2023-06-22T12:16:17;11.75;;;5.63;;
8881;SDS011;4477;48.736;9.176;2023-06-22T12:18:48;11.57;;;6.47;;
8881;SDS011;4477;48.736;9.176;2023-06-22T12:21:15;11.05;;;6.55;;
8881;SDS011;4477;48.736;9.176;2023-06-22T12:23:41;15.68;;;7.07;;
8881;SDS011;4477;48.736;9.176;2023-06-22T12:26:08;14.15;;;6.57;;
8881;SDS011;4477;48.736;9.176;2023-06-22T12:28:35;13.05;;;5.70;;
8881;SDS011;4477;48.736;9.176;2023-06-22T12:31:02;15.00;;;7.00;;
8881;SDS011;4477;48.736;9.176;2023-06-22T12:33:29;9.85;;;6.75;;
8881;SDS011;4477;48.736;9.176;2023-06-22T12:35:58;14.00;;;6.50;;
8881;SDS011;4477;48.736;9.176;2023-06-22T12:38:24;10.02;;;6.05;;
8881;SDS011;4477;48.736;9.176;2023-06-22T12:40:51;10.82;;;6.35;;
8881;SDS011;4477;48.736;9.176;2023-06-22T12:43:18;9.88;;;5.57;;
8881;SDS011;4477;48.736;9.176;2023-06-22T12:45:45;11.15;;;6.38;;
8881;SDS011;4477;48.736;9.176;2023-06-22T12:48:12;11.10;;;5.82;;
8881;SDS011;4477;48.736;9.176;2023-06-22T12:50:39;13.52;;;6.38;;
8881;SDS011;4477;48.736;9.176;2023-06-22T12:53:07;8.07;;;5.50;;
8881;SDS011;4477;48.736;9.176;2023-06-22T12:55:34;12.20;;;6.50;;
8881;SDS011;4477;48.736;9.176;2023-06-22T12:58:01;11.07;;;5.78;;
8881;SDS011;4477;48.736;9.176;2023-06-22T13:00:27;11.32;;;6.32;;
8881;SDS011;4477;48.736;9.176;2023-06-22T13:02:54;12.00;;;6.88;;
8881;SDS011;4477;48.736;9.176;2023-06-22T13:05:21;9.15;;;6.10;;
8881;SDS011;4477;48.736;9.176;2023-06-22T13:07:48;14.38;;;7.10;;
8881;SDS011;4477;48.736;9.176;2023-06-22T13:10:16;13.77;;;6.72;;
8881;SDS011;4477;48.736;9.176;2023-06-22T13:12:43;11.32;;;6.78;;
8881;SDS011;4477;48.736;9.176;2023-06-22T13:15:10;9.40;;;6.28;;
8881;SDS011;4477;48.736;9.176;2023-06-22T13:17:37;12.10;;;5.90;;
8881;SDS011;4477;48.736;9.176;2023-06-22T13:20:04;10.85;;;7.03;;
8881;SDS011;4477;48.736;9.176;2023-06-22T13:22:32;9.85;;;6.03;;
8881;SDS011;4477;48.736;9.176;2023-06-22T13:25:05;14.73;;;6.43;;
8881;SDS011;4477;48.736;9.176;2023-06-22T13:27:34;13.18;;;6.32;;
8881;SDS011;4477;48.736;9.176;2023-06-22T13:30:01;13.45;;;6.00;;
8881;SDS011;4477;48.736;9.176;2023-06-22T13:32:28;11.52;;;5.97;;
8881;SDS011;4477;48.736;9.176;2023-06-22T13:34:55;13.88;;;5.95;;
8881;SDS011;4477;48.736;9.176;2023-06-22T13:37:22;9.50;;;5.95;;
8881;SDS011;4477;48.736;9.176;2023-06-22T13:39:49;11.55;;;6.38;;
8881;SDS011;4477;48.736;9.176;2023-06-22T13:42:16;14.50;;;6.00;;
8881;SDS011;4477;48.736;9.176;2023-06-22T13:44:44;16.15;;;6.18;;
8881;SDS011;4477;48.736;9.176;2023-06-22T13:47:11;11.43;;;5.90;;
8881;SDS011;4477;48.736;9.176;2023-06-22T13:49:37;12.35;;;5.68;;
8881;SDS011;4477;48.736;9.176;2023-06-22T13:52:04;14.38;;;6.35;;
8881;SDS011;4477;48.736;9.176;2023-06-22T13:54:35;10.00;;;5.53;;
8881;SDS011;4477;48.736;9.176;2023-06-22T13:57:02;15.55;;;6.50;;
8881;SDS011;4477;48.736;9.176;2023-06-22T13:59:29;11.18;;;5.90;;
8881;SDS011;4477;48.736;9.176;2023-06-22T14:01:57;11.02;;;5.97;;
8881;SDS011;4477;48.736;9.176;2023-06-22T14:04:24;12.32;;;5.15;;
8881;SDS011;4477;48.736;9.176;2023-06-22T14:06:51;12.43;;;5.30;;
8881;SDS011;4477;48.736;9.176;2023-06-22T14:09:17;11.68;;;5.30;;
8881;SDS011;4477;48.736;9.176;2023-06-22T14:11:44;14.25;;;5.90;;
8881;SDS011;4477;48.736;9.176;2023-06-22T14:14:11;8.02;;;5.68;;
8881;SDS011;4477;48.736;9.176;2023-06-22T14:16:38;11.52;;;5.47;;
8881;SDS011;4477;48.736;9.176;2023-06-22T14:19:06;13.02;;;5.53;;
8881;SDS011;4477;48.736;9.176;2023-06-22T14:21:33;11.48;;;5.65;;
8881;SDS011;4477;48.736;9.176;2023-06-22T14:24:00;13.38;;;5.75;;
8881;SDS011;4477;48.736;9.176;2023-06-22T14:26:27;13.38;;;5.50;;
8881;SDS011;4477;48.736;9.176;2023-06-22T14:28:53;10.93;;;5.35;;
8881;SDS011;4477;48.736;9.176;2023-06-22T14:31:21;9.75;;;5.18;;
8881;SDS011;4477;48.736;9.176;2023-06-22T14:33:48;13.85;;;5.40;;
8881;SDS011;4477;48.736;9.176;2023-06-22T14:36:17;13.48;;;5.32;;
8881;SDS011;4477;48.736;9.176;2023-06-22T14:38:44;16.48;;;5.55;;
8881;SDS011;4477;48.736;9.176;2023-06-22T14:41:12;10.50;;;4.40;;
8881;SDS011;4477;48.736;9.176;2023-06-22T14:43:43;10.50;;;4.07;;
8881;SDS011;4477;48.736;9.176;2023-06-22T14:46:11;11.50;;;4.07;;
8881;SDS011;4477;48.736;9.176;2023-06-22T14:48:37;14.10;;;4.47;;
8881;SDS011;4477;48.736;9.176;2023-06-22T14:51:04;10.20;;;4.35;;
8881;SDS011;4477;48.736;9.176;2023-06-22T14:53:32;12.85;;;3.88;;
8881;SDS011;4477;48.736;9.176;2023-06-22T14:55:59;10.02;;;3.80;;
8881;SDS011;4477;48.736;9.176;2023-06-22T14:58:27;14.32;;;4.32;;
8881;SDS011;4477;48.736;9.176;2023-06-22T15:00:54;9.63;;;3.53;;
8881;SDS011;4477;48.736;9.176;2023-06-22T15:03:21;12.18;;;3.90;;
8881;SDS011;4477;48.736;9.176;2023-06-22T15:05:52;10.13;;;3.75;;
8881;SDS011;4477;48.736;9.176;2023-06-22T15:08:20;9.48;;;4.18;;